createdAt,value
2019-02-19T00:01:02.201Z,93.10
2019-02-19T00:06:07.321Z,93.00
2019-02-19T00:11:12.473Z,93.00
2019-02-19T00:16:17.671Z,92.90
2019-02-19T00:21:22.812Z,92.90
2019-02-19T00:26:28.015Z,92.90
2019-02-19T00:31:33.269Z,92.80
2019-02-19T00:36:38.421Z,92.70
2019-02-19T00:41:43.507Z,92.80
2019-02-19T00:46:48.673Z,92.90
2019-02-19T00:51:53.875Z,92.80
2019-02-19T00:56:59.020Z,92.90
2019-02-19T01:02:04.113Z,92.80
2019-02-19T01:07:09.395Z,92.80
2019-02-19T01:12:14.788Z,92.80
2019-02-19T01:17:19.949Z,92.80
2019-02-19T01:22:25.058Z,92.90
2019-02-19T01:27:30.190Z,92.80
2019-02-19T01:32:35.342Z,92.90
2019-02-19T01:37:40.539Z,92.90
2019-02-19T01:42:45.704Z,93.20
2019-02-19T01:47:50.789Z,92.90
2019-02-19T01:52:55.920Z,92.90
2019-02-19T01:58:01.141Z,92.90
2019-02-19T02:03:06.301Z,93.00
2019-02-19T02:08:11.520Z,93.00
2019-02-19T02:13:16.589Z,93.00
2019-02-19T02:18:21.689Z,93.00
2019-02-19T02:23:26.812Z,93.10
2019-02-19T02:28:31.911Z,93.10
2019-02-19T02:33:37.092Z,93.10
2019-02-19T02:38:42.250Z,93.10
2019-02-19T02:43:47.442Z,93.20
2019-02-19T02:48:52.605Z,93.10
2019-02-19T02:53:57.887Z,93.10
2019-02-19T02:59:03.040Z,93.00
2019-02-19T03:04:08.341Z,92.90
2019-02-19T03:09:13.499Z,93.00
2019-02-19T03:14:18.666Z,93.00
2019-02-19T03:19:23.838Z,92.90
2019-02-19T03:24:29.015Z,93.00
2019-02-19T03:29:34.205Z,93.00
2019-02-19T03:34:39.306Z,93.00
2019-02-19T03:39:44.386Z,93.00
2019-02-19T03:44:49.533Z,93.00
2019-02-19T03:49:55.542Z,93.00
2019-02-19T03:55:00.715Z,92.90
2019-02-19T04:00:06.093Z,93.00
2019-02-19T04:05:11.380Z,93.10
2019-02-19T04:10:16.590Z,93.20
2019-02-19T04:15:21.730Z,93.10
2019-02-19T04:20:26.787Z,93.10
2019-02-19T04:25:31.970Z,93.10
2019-02-19T04:30:37.060Z,93.20
2019-02-19T04:35:42.212Z,93.20
2019-02-19T04:40:47.389Z,93.20
2019-02-19T04:45:52.529Z,93.20
2019-02-19T04:50:57.662Z,93.20
2019-02-19T04:56:02.809Z,93.30
2019-02-19T05:01:07.980Z,93.20
2019-02-19T05:06:13.206Z,93.20
2019-02-19T05:11:18.413Z,93.20
2019-02-19T05:16:23.545Z,93.20
2019-02-19T05:21:28.759Z,93.20
2019-02-19T05:26:33.972Z,93.20
2019-02-19T05:31:39.127Z,93.20
2019-02-19T05:36:44.328Z,93.30
2019-02-19T05:41:49.452Z,93.30
2019-02-19T05:46:54.566Z,93.30
2019-02-19T05:51:59.712Z,93.40
2019-02-19T05:57:04.902Z,93.50
2019-02-19T06:02:10.090Z,93.50
2019-02-19T06:07:15.257Z,93.50
2019-02-19T06:12:20.383Z,93.60
2019-02-19T06:17:25.572Z,93.60
2019-02-19T06:22:30.805Z,93.50
2019-02-19T06:27:36.008Z,93.50
2019-02-19T06:32:41.262Z,93.50
2019-02-19T06:37:46.435Z,93.50
2019-02-19T06:42:51.601Z,93.50
2019-02-19T06:47:56.762Z,93.60
2019-02-19T06:53:01.854Z,93.60
2019-02-19T06:58:07.043Z,93.60
2019-02-19T07:03:34.248Z,93.70
2019-02-19T07:08:39.449Z,93.70
2019-02-19T07:13:44.711Z,93.70
2019-02-19T07:18:49.875Z,93.60
2019-02-19T07:24:04.255Z,93.70
2019-02-19T07:29:04.380Z,94.00
2019-02-19T07:34:09.458Z,93.70
2019-02-19T07:39:14.610Z,93.60
2019-02-19T07:44:19.891Z,93.60
2019-02-19T07:49:25.063Z,93.90
2019-02-19T07:54:30.340Z,93.90
2019-02-19T07:59:35.481Z,93.80
2019-02-19T08:04:40.674Z,93.70
2019-02-19T08:09:45.808Z,93.70
2019-02-19T08:14:51.037Z,93.70
2019-02-19T08:19:56.220Z,93.60
2019-02-19T08:25:01.529Z,93.60
2019-02-19T08:30:07.260Z,93.50
2019-02-19T08:35:12.506Z,93.50
2019-02-19T08:40:17.696Z,93.50
2019-02-19T08:45:22.828Z,93.50
2019-02-19T08:50:27.992Z,93.50
2019-02-19T08:55:34.837Z,93.30
2019-02-19T09:00:40.083Z,93.40
2019-02-19T09:05:45.317Z,93.30
2019-02-19T09:10:50.488Z,93.30
2019-02-19T09:15:55.661Z,93.20
2019-02-19T09:21:00.875Z,93.10
2019-02-19T09:26:06.033Z,93.00
2019-02-19T09:31:11.188Z,93.00
2019-02-19T09:36:16.367Z,92.70
2019-02-19T09:41:21.535Z,92.30
2019-02-19T09:46:26.806Z,92.00
2019-02-19T09:51:32.016Z,91.80
2019-02-19T09:56:37.183Z,91.50
2019-02-19T10:01:42.387Z,91.30
2019-02-19T10:06:47.575Z,91.00
2019-02-19T10:11:52.720Z,90.70
2019-02-19T10:16:57.907Z,90.50
2019-02-19T10:22:03.097Z,90.40
2019-02-19T10:27:08.642Z,90.00
2019-02-19T10:32:13.840Z,89.10
2019-02-19T10:37:19.027Z,89.30
2019-02-19T10:42:24.242Z,89.00
2019-02-19T10:47:29.408Z,88.90
2019-02-19T10:52:34.606Z,88.30
2019-02-19T10:57:39.758Z,88.50
2019-02-19T11:02:44.909Z,88.50
2019-02-19T11:07:50.119Z,86.80
2019-02-19T11:12:55.407Z,87.00
2019-02-19T11:18:03.756Z,86.70
2019-02-19T11:23:08.690Z,86.70
2019-02-19T11:28:13.857Z,86.40
2019-02-19T11:33:19.077Z,85.60
2019-02-19T11:38:24.290Z,85.90
2019-02-19T11:43:29.492Z,85.90
2019-02-19T11:48:36.904Z,85.70
2019-02-19T11:53:41.547Z,84.30
2019-02-19T11:58:46.750Z,84.50
2019-02-19T12:03:51.951Z,83.90
2019-02-19T12:08:57.135Z,83.50
2019-02-19T12:14:02.343Z,84.70
2019-02-19T12:19:07.576Z,82.80
2019-02-19T12:24:12.756Z,83.00
2019-02-19T12:29:18.087Z,82.40
2019-02-19T12:34:23.382Z,82.00
2019-02-19T12:39:28.533Z,81.30
2019-02-19T12:44:33.723Z,80.10
2019-02-19T12:49:38.913Z,80.40
2019-02-19T12:54:44.039Z,80.20
2019-02-19T12:59:56.418Z,79.90
2019-02-19T13:04:56.091Z,79.10
2019-02-19T13:10:01.259Z,77.50
2019-02-19T13:15:07.916Z,77.40
2019-02-19T13:20:13.789Z,77.80
2019-02-19T13:25:18.981Z,77.00
2019-02-19T13:30:24.096Z,75.90
2019-02-19T13:35:29.303Z,75.90
2019-02-19T13:40:34.482Z,76.00
2019-02-19T13:45:39.583Z,71.40
2019-02-19T13:50:44.733Z,71.80
2019-02-19T13:55:52.495Z,70.30
2019-02-19T14:00:57.664Z,71.50
2019-02-19T14:06:02.857Z,68.50
2019-02-19T14:11:08.024Z,69.70
2019-02-19T14:16:17.637Z,69.00
2019-02-19T14:21:59.641Z,67.90
2019-02-19T14:27:35.607Z,66.50
2019-02-19T14:33:08.536Z,68.10
2019-02-19T14:38:32.612Z,68.40
2019-02-19T14:43:55.110Z,69.70
2019-02-19T14:49:36.596Z,69.50
2019-02-19T14:54:40.336Z,68.80
2019-02-19T15:00:04.408Z,68.40
2019-02-19T15:05:30.173Z,69.00
2019-02-19T15:10:54.188Z,69.00
2019-02-19T15:16:24.254Z,69.30
2019-02-19T15:21:46.652Z,70.00
2019-02-19T15:27:19.567Z,69.90
2019-02-19T15:32:42.211Z,69.30
2019-02-19T15:38:04.969Z,70.00
2019-02-19T15:43:27.421Z,69.50
2019-02-19T15:48:51.232Z,70.00
2019-02-19T15:54:27.285Z,70.80
2019-02-19T16:00:00.294Z,70.90
2019-02-19T16:05:34.445Z,70.50
2019-02-19T16:10:57.051Z,71.40
2019-02-19T16:16:28.881Z,71.50
2019-02-19T16:21:54.690Z,71.70
2019-02-19T16:27:12.845Z,71.20
2019-02-19T16:32:26.485Z,71.80
2019-02-19T16:37:57.392Z,71.40
2019-02-19T16:43:10.132Z,71.40
2019-02-19T16:48:25.176Z,72.70
2019-02-19T16:53:52.341Z,72.80
2019-02-19T16:59:26.973Z,72.70
2019-02-19T17:04:54.097Z,73.00
2019-02-19T17:10:24.166Z,72.30
2019-02-19T17:15:49.713Z,72.70
2019-02-19T17:21:13.774Z,70.60
2019-02-19T17:26:37.851Z,69.00
2019-02-19T17:31:54.607Z,69.70
2019-02-19T17:37:20.963Z,70.50
2019-02-19T17:42:51.689Z,70.90
2019-02-19T17:48:15.843Z,71.70
2019-02-19T17:53:42.649Z,72.00
2019-02-19T17:59:15.847Z,72.60
2019-02-19T18:04:40.524Z,73.50
2019-02-19T18:09:54.055Z,75.00
2019-02-19T18:15:18.186Z,76.20
2019-02-19T18:20:23.409Z,76.70
2019-02-19T18:25:28.592Z,77.70
2019-02-19T18:30:33.835Z,78.00
2019-02-19T18:35:39.031Z,78.50
2019-02-19T18:40:44.251Z,80.30
2019-02-19T18:45:49.484Z,81.00
2019-02-19T18:50:58.486Z,81.20
2019-02-19T18:56:01.858Z,82.40
2019-02-19T19:01:08.540Z,83.00
2019-02-19T19:06:13.885Z,83.90
2019-02-19T19:11:19.379Z,84.10
2019-02-19T19:16:24.616Z,85.40
2019-02-19T19:21:29.791Z,85.50
2019-02-19T19:26:34.987Z,85.70
2019-02-19T19:31:40.194Z,86.00
2019-02-19T19:36:45.436Z,86.00
2019-02-19T19:41:50.700Z,87.20
2019-02-19T19:46:55.867Z,87.30
2019-02-19T19:52:01.099Z,87.60
2019-02-19T19:57:06.288Z,87.70
2019-02-19T20:02:11.527Z,88.30
2019-02-19T20:07:16.685Z,88.70
2019-02-19T20:12:21.963Z,89.10
2019-02-19T20:17:27.218Z,89.00
2019-02-19T20:22:32.502Z,89.20
2019-02-19T20:27:37.724Z,89.50
2019-02-19T20:32:42.944Z,89.70
2019-02-19T20:37:53.980Z,89.50
2019-02-19T20:42:55.327Z,90.10
2019-02-19T20:48:00.696Z,90.10
2019-02-19T20:53:06.008Z,90.10
2019-02-19T20:58:11.252Z,90.20
2019-02-19T21:03:16.520Z,90.60
2019-02-19T21:08:21.790Z,90.40
2019-02-19T21:13:27.049Z,90.60
2019-02-19T21:18:32.298Z,90.30
2019-02-19T21:23:37.718Z,90.30
2019-02-19T21:28:42.940Z,90.70
2019-02-19T21:33:48.134Z,90.90
2019-02-19T21:38:53.396Z,90.90
2019-02-19T21:43:58.572Z,90.90
2019-02-19T21:49:03.967Z,91.30
2019-02-19T21:54:09.369Z,91.30
2019-02-19T21:59:14.565Z,91.50
2019-02-19T22:04:20.035Z,91.50
2019-02-19T22:09:25.337Z,91.70
2019-02-19T22:14:30.563Z,91.80
2019-02-19T22:19:35.768Z,91.80
2019-02-19T22:24:40.924Z,92.10
2019-02-19T22:29:46.135Z,92.00
2019-02-19T22:34:51.330Z,92.40
2019-02-19T22:39:56.560Z,92.30
2019-02-19T22:45:02.018Z,92.50
2019-02-19T22:50:07.534Z,92.50
2019-02-19T22:55:31.799Z,92.70
2019-02-19T23:01:03.668Z,93.00
2019-02-19T23:06:09.215Z,92.90
2019-02-19T23:11:14.382Z,92.90
2019-02-19T23:16:20.675Z,92.60
2019-02-19T23:21:25.864Z,92.70
2019-02-19T23:26:31.039Z,92.60
2019-02-19T23:31:36.241Z,92.90
2019-02-19T23:37:00.286Z,93.00
2019-02-19T23:42:05.593Z,92.90
2019-02-19T23:47:11.467Z,92.60
2019-02-19T23:52:16.691Z,92.40
2019-02-19T23:57:23.731Z,92.60
